Time;durP1;ratioP1;P1;durP2;ratioP2;P2;SDS_P1;SDS_P2;PMS_P1;PMS_P2;Temp;Humidity;BMP_temperature;BMP_pressure;BME280_temperature;BME280_humidity;BME280_pressure;Samples;Min_cycle;Max_cycle;Signal;HPM_P1;HPM_P2
2023/04/24 00:02:23;;;;;;;1999.90;999.90;;;8.80;99.90;;;;;;5063366;28;20075;-73
2023/04/24 00:04:49;;;;;;;1999.90;999.90;;;8.80;99.90;;;;;;5076109;28;20040;-75
2023/04/24 00:07:16;;;;;;;1999.90;999.90;;;8.80;99.90;;;;;;5057306;28;20085;-75
2023/04/24 00:09:45;;;;;;;1999.90;999.90;;;8.80;99.90;;;;;;5075287;28;20040;-73
2023/04/24 00:12:10;;;;;;;1999.90;999.90;;;8.80;99.90;;;;;;5051914;28;20039;-74
2023/04/24 00:14:36;;;;;;;1999.90;999.90;;;8.80;99.90;;;;;;5070831;28;20028;-73
2023/04/24 00:17:02;;;;;;;1505.80;755.00;;;8.80;99.90;;;;;;5046802;28;20028;-75
2023/04/24 00:19:29;;;;;;;1999.90;999.90;;;8.70;99.90;;;;;;5067368;28;20036;-73
2023/04/24 00:21:55;;;;;;;1999.90;999.90;;;8.80;99.90;;;;;;5058170;28;20051;-73
2023/04/24 00:24:20;;;;;;;1999.90;999.90;;;8.80;99.90;;;;;;5071778;28;20131;-73
2023/04/24 00:26:47;;;;;;;1999.90;999.90;;;8.80;99.90;;;;;;5054293;28;20474;-74
2023/04/24 00:29:13;;;;;;;1999.90;999.90;;;8.90;99.90;;;;;;5069367;28;20414;-74
2023/04/24 00:31:39;;;;;;;1999.90;999.90;;;8.90;99.90;;;;;;5054461;28;20033;-73
2023/04/24 00:34:05;;;;;;;1999.90;999.90;;;8.80;99.90;;;;;;5073483;28;20032;-74
2023/04/24 00:36:31;;;;;;;1999.90;999.90;;;8.80;99.90;;;;;;5061762;28;20029;-74
2023/04/24 00:38:57;;;;;;;1999.90;999.90;;;8.80;99.90;;;;;;5068775;28;20020;-74
2023/04/24 00:41:24;;;;;;;1999.90;999.90;;;8.80;99.90;;;;;;5067407;28;20028;-73
2023/04/24 00:43:51;;;;;;;1999.90;999.90;;;8.70;99.90;;;;;;5068028;28;20037;-73
2023/04/24 00:46:17;;;;;;;1999.90;999.90;;;8.70;99.90;;;;;;5052899;28;20036;-74
2023/04/24 00:48:43;;;;;;;1999.90;999.90;;;8.70;99.90;;;;;;5056610;28;20375;-73
2023/04/24 00:51:09;;;;;;;1999.90;999.90;;;8.70;99.90;;;;;;5064866;28;20482;-74
2023/04/24 00:53:35;;;;;;;1999.90;999.90;;;8.70;99.90;;;;;;5069140;28;20086;-73
2023/04/24 00:56:02;;;;;;;1999.90;999.90;;;8.70;99.90;;;;;;5072186;28;20066;-73
2023/04/24 00:58:28;;;;;;;1999.90;999.90;;;8.60;99.90;;;;;;5063127;28;20082;-73
2023/04/24 01:00:55;;;;;;;1999.90;999.90;;;8.60;99.90;;;;;;5070286;28;20021;-75
2023/04/24 01:03:24;;;;;;;1999.90;999.90;;;8.60;99.90;;;;;;5070102;28;20039;-75
2023/04/24 01:05:51;;;;;;;1044.05;529.38;;;8.60;99.90;;;;;;5075217;28;20024;-73
2023/04/24 01:08:17;;;;;;;1999.90;999.90;;;8.50;99.90;;;;;;5076418;28;20062;-73
2023/04/24 01:10:44;;;;;;;1999.90;999.90;;;8.60;99.90;;;;;;5058831;28;20506;-73
2023/04/24 01:13:10;;;;;;;1999.90;999.90;;;8.50;99.90;;;;;;5076190;28;20036;-75
2023/04/24 01:15:36;;;;;;;1999.90;999.90;;;8.50;99.90;;;;;;5031939;28;20047;-75
2023/04/24 01:18:03;;;;;;;1999.90;999.90;;;8.50;99.90;;;;;;5057296;28;20036;-75
2023/04/24 01:20:29;;;;;;;1999.90;999.90;;;8.50;99.90;;;;;;5073625;28;20028;-73
2023/04/24 01:22:56;;;;;;;1999.90;999.90;;;8.50;99.90;;;;;;5072850;28;20055;-73
2023/04/24 01:25:22;;;;;;;1999.90;999.90;;;8.50;99.90;;;;;;5073733;28;20386;-73
2023/04/24 01:27:48;;;;;;;1999.90;999.90;;;8.40;99.90;;;;;;5076355;28;20032;-74
2023/04/24 01:30:14;;;;;;;1999.90;999.90;;;8.40;99.90;;;;;;5074106;28;20689;-73
2023/04/24 01:32:41;;;;;;;664.35;399.15;;;8.40;99.90;;;;;;5075074;28;20028;-73
2023/04/24 01:35:07;;;;;;;1999.90;999.90;;;8.40;99.90;;;;;;5071684;28;20013;-73
2023/04/24 01:37:33;;;;;;;1999.90;999.90;;;8.50;99.90;;;;;;5074889;28;20075;-75
2023/04/24 01:39:59;;;;;;;1999.90;999.90;;;8.40;99.90;;;;;;5075137;28;20048;-75
2023/04/24 01:42:28;;;;;;;1999.90;999.90;;;8.40;99.90;;;;;;5078359;28;20075;-75
2023/04/24 01:44:54;;;;;;;1999.90;999.90;;;8.40;99.90;;;;;;5068813;28;20029;-75
2023/04/24 01:47:20;;;;;;;1999.90;999.90;;;8.40;99.90;;;;;;5076603;28;20112;-73
2023/04/24 01:49:48;;;;;;;1999.90;999.90;;;8.40;99.90;;;;;;5070741;28;20546;-73
2023/04/24 01:52:13;;;;;;;1999.90;999.90;;;8.30;99.90;;;;;;5063095;28;20120;-73
2023/04/24 01:54:39;;;;;;;1999.90;999.90;;;8.40;99.90;;;;;;5075695;28;20128;-74
2023/04/24 01:57:05;;;;;;;1999.90;999.90;;;8.40;99.90;;;;;;5059628;28;20032;-73
2023/04/24 01:59:34;;;;;;;1999.90;999.90;;;8.30;99.90;;;;;;5075208;28;20530;-75
2023/04/24 02:02:00;;;;;;;1999.90;999.90;;;8.40;99.90;;;;;;5057487;28;20458;-73
2023/04/24 02:04:25;;;;;;;1999.90;999.90;;;8.40;99.90;;;;;;5044843;28;20123;-73
2023/04/24 02:06:51;;;;;;;1999.90;999.90;;;8.30;99.90;;;;;;5074589;28;20067;-73
2023/04/24 02:09:17;;;;;;;1999.90;999.90;;;8.20;99.90;;;;;;5077302;28;20391;-74
2023/04/24 02:11:42;;;;;;;1999.90;999.90;;;8.20;99.90;;;;;;5072581;28;20032;-73
2023/04/24 02:14:08;;;;;;;1999.90;999.90;;;8.20;99.90;;;;;;5068709;28;20481;-73
2023/04/24 02:16:35;;;;;;;1999.90;999.90;;;8.30;99.90;;;;;;5068745;28;20067;-73
2023/04/24 02:19:02;;;;;;;1999.90;999.90;;;8.30;99.90;;;;;;5078442;28;20029;-73
2023/04/24 02:21:27;;;;;;;1999.90;999.90;;;8.20;99.90;;;;;;5056824;28;20105;-73
2023/04/24 02:23:54;;;;;;;1999.90;999.90;;;8.20;99.90;;;;;;5064361;28;20048;-73
2023/04/24 02:26:19;;;;;;;1999.90;999.90;;;8.30;99.90;;;;;;5077507;28;20720;-73
2023/04/24 02:28:45;;;;;;;1999.90;999.90;;;8.30;99.90;;;;;;5061403;28;20059;-73
2023/04/24 02:31:11;;;;;;;1999.90;999.90;;;8.30;99.90;;;;;;5070897;28;20051;-73
2023/04/24 02:33:36;;;;;;;1999.90;999.90;;;8.30;99.90;;;;;;5057506;28;20031;-73
2023/04/24 02:36:02;;;;;;;1999.90;999.90;;;8.30;99.90;;;;;;5071275;28;20039;-73
2023/04/24 02:38:29;;;;;;;1999.90;999.90;;;8.30;99.90;;;;;;5072859;28;20040;-73
2023/04/24 02:40:54;;;;;;;1999.90;999.90;;;8.30;99.90;;;;;;5076146;28;20142;-73
2023/04/24 02:43:20;;;;;;;1999.90;999.90;;;8.30;99.90;;;;;;5077810;28;20039;-73
2023/04/24 02:45:46;;;;;;;1999.90;999.90;;;8.30;99.90;;;;;;5078750;28;20115;-73
2023/04/24 02:48:12;;;;;;;1999.90;999.90;;;8.30;99.90;;;;;;5073156;28;20036;-73
2023/04/24 02:50:38;;;;;;;1999.90;999.90;;;8.30;99.90;;;;;;5059770;28;20040;-74
2023/04/24 02:53:04;;;;;;;1999.90;999.90;;;8.30;99.90;;;;;;5077917;28;20111;-73
2023/04/24 02:55:30;;;;;;;1999.90;999.90;;;8.40;99.90;;;;;;5072007;28;20024;-75
2023/04/24 02:57:55;;;;;;;1999.90;999.90;;;8.30;99.90;;;;;;5074715;28;20051;-74
2023/04/24 03:00:21;;;;;;;1999.90;999.90;;;8.40;99.90;;;;;;5056961;28;20028;-75
2023/04/24 03:02:47;;;;;;;1999.90;999.90;;;8.40;99.90;;;;;;5077683;28;20047;-75
2023/04/24 03:05:13;;;;;;;1999.90;999.90;;;8.40;99.90;;;;;;5059513;28;20024;-73
2023/04/24 03:07:39;;;;;;;1999.90;999.90;;;8.40;99.90;;;;;;5058915;28;20085;-73
2023/04/24 03:10:05;;;;;;;1999.90;999.90;;;8.30;99.90;;;;;;5077002;28;20024;-73
2023/04/24 03:12:31;;;;;;;1999.90;999.90;;;8.30;99.90;;;;;;5058502;28;20510;-74
2023/04/24 03:14:57;;;;;;;1999.90;999.90;;;8.30;99.90;;;;;;5069599;28;20093;-75
2023/04/24 03:17:23;;;;;;;1999.90;999.90;;;8.30;99.90;;;;;;5075047;28;20008;-75
2023/04/24 03:19:48;;;;;;;1999.90;999.90;;;8.40;99.90;;;;;;5074568;28;20078;-75
2023/04/24 03:22:14;;;;;;;1999.90;999.90;;;8.30;99.90;;;;;;5062579;28;20124;-74
2023/04/24 03:24:40;;;;;;;1999.90;999.90;;;8.20;99.90;;;;;;5068688;28;20127;-75
2023/04/24 03:27:05;;;;;;;1999.90;999.90;;;8.20;99.90;;;;;;5073428;28;20028;-75
2023/04/24 03:29:31;;;;;;;1999.90;999.90;;;8.20;99.90;;;;;;5057224;28;20593;-74
2023/04/24 03:31:57;;;;;;;1999.90;999.90;;;8.20;99.90;;;;;;5072457;28;20032;-75
2023/04/24 03:34:22;;;;;;;1999.90;999.90;;;8.20;99.90;;;;;;5072405;28;20386;-73
2023/04/24 03:36:48;;;;;;;1999.90;999.90;;;8.20;99.90;;;;;;5064175;28;20525;-75
2023/04/24 03:39:14;;;;;;;1999.90;999.90;;;8.20;99.90;;;;;;5070775;28;20081;-75
2023/04/24 03:41:40;;;;;;;1999.90;999.90;;;8.10;99.90;;;;;;5073578;28;20064;-75
2023/04/24 03:44:05;;;;;;;1999.90;999.90;;;8.00;99.90;;;;;;5071128;28;20743;-73
2023/04/24 03:46:31;;;;;;;1999.90;999.90;;;8.00;99.90;;;;;;5056298;28;20036;-75
2023/04/24 03:48:57;;;;;;;1999.90;999.90;;;7.90;99.90;;;;;;5058010;28;20394;-74
2023/04/24 03:51:22;;;;;;;1999.90;999.90;;;8.00;99.90;;;;;;5076311;28;20031;-74
2023/04/24 03:53:49;;;;;;;1999.90;999.90;;;8.00;99.90;;;;;;5057907;28;20028;-74
2023/04/24 03:56:14;;;;;;;1999.90;999.90;;;8.10;99.90;;;;;;5074400;28;20032;-73
2023/04/24 03:58:40;;;;;;;1999.90;999.90;;;8.10;99.90;;;;;;5067727;28;20165;-73
2023/04/24 04:01:07;;;;;;;1999.90;999.90;;;8.10;99.90;;;;;;5055870;28;20024;-74
2023/04/24 04:03:33;;;;;;;1999.90;999.90;;;8.10;99.90;;;;;;5072763;28;20517;-74
2023/04/24 04:05:59;;;;;;;1999.90;999.90;;;8.10;99.90;;;;;;5072982;28;20029;-74
2023/04/24 04:08:25;;;;;;;1999.90;999.90;;;8.10;99.90;;;;;;5061457;28;20048;-75
2023/04/24 04:10:50;;;;;;;1999.90;999.90;;;8.10;99.90;;;;;;5068918;28;20486;-75
2023/04/24 04:13:16;;;;;;;1999.90;999.90;;;8.20;99.90;;;;;;5073935;28;19924;-75
2023/04/24 04:15:42;;;;;;;1999.90;999.90;;;8.20;99.90;;;;;;5065619;28;20037;-75
2023/04/24 04:18:08;;;;;;;1999.90;999.90;;;8.30;99.90;;;;;;5062481;28;20024;-74
2023/04/24 04:20:34;;;;;;;1999.90;999.90;;;8.30;99.90;;;;;;5077118;28;20035;-75
2023/04/24 04:23:00;;;;;;;1999.90;999.90;;;8.30;99.90;;;;;;5075252;28;20407;-75
2023/04/24 04:25:25;;;;;;;1999.90;999.90;;;8.30;99.90;;;;;;5060652;28;20405;-75
2023/04/24 04:27:52;;;;;;;1999.90;999.90;;;8.30;99.90;;;;;;5077572;28;20063;-75
2023/04/24 04:30:18;;;;;;;1999.90;999.90;;;8.30;99.90;;;;;;5077234;28;20039;-75
2023/04/24 04:32:44;;;;;;;1999.90;999.90;;;8.30;99.90;;;;;;5076675;28;20489;-75
2023/04/24 04:35:10;;;;;;;1999.90;999.90;;;8.30;99.90;;;;;;5076005;28;20064;-74
2023/04/24 04:37:35;;;;;;;1999.90;999.90;;;8.30;99.90;;;;;;5077043;28;20379;-74
2023/04/24 04:40:06;;;;;;;1999.90;999.90;;;8.30;99.90;;;;;;5073708;28;20036;-73
2023/04/24 04:42:33;;;;;;;1999.90;999.90;;;8.30;99.90;;;;;;5061561;28;20036;-73
2023/04/24 04:45:00;;;;;;;1999.90;999.90;;;8.30;99.90;;;;;;5078702;28;20047;-74
2023/04/24 04:47:26;;;;;;;1999.90;999.90;;;8.30;99.90;;;;;;5077561;28;20032;-74
2023/04/24 04:49:52;;;;;;;1999.90;999.90;;;8.30;99.80;;;;;;5077610;28;20498;-72
2023/04/24 04:52:18;;;;;;;1999.90;999.90;;;8.40;99.70;;;;;;5059303;28;20109;-73
2023/04/24 04:54:44;;;;;;;1999.90;999.90;;;8.40;99.90;;;;;;5077634;28;20028;-75
2023/04/24 04:57:10;;;;;;;1999.90;999.90;;;8.40;99.50;;;;;;5061765;28;20447;-74
2023/04/24 04:59:37;;;;;;;1999.90;999.90;;;8.40;99.80;;;;;;5071012;28;20040;-73
2023/04/24 05:02:02;;;;;;;1999.90;999.90;;;8.30;99.60;;;;;;5055545;28;20040;-73
2023/04/24 05:04:28;;;;;;;1999.90;999.90;;;8.40;99.20;;;;;;5068176;28;20032;-73
2023/04/24 05:06:54;;;;;;;1999.90;999.90;;;8.30;98.80;;;;;;5036516;28;20035;-73
2023/04/24 05:09:19;;;;;;;1999.90;999.90;;;8.20;99.20;;;;;;5057249;28;20025;-75
2023/04/24 05:11:45;;;;;;;1999.90;999.90;;;8.20;99.40;;;;;;5054347;28;20392;-73
2023/04/24 05:14:12;;;;;;;1999.90;999.90;;;8.20;99.10;;;;;;5067893;28;20068;-75
2023/04/24 05:16:38;;;;;;;1999.90;999.90;;;8.30;99.10;;;;;;5058057;28;20036;-74
2023/04/24 05:19:04;;;;;;;1999.90;999.90;;;8.30;99.10;;;;;;5070294;28;20040;-74
2023/04/24 05:21:31;;;;;;;1999.90;999.90;;;8.20;98.80;;;;;;5067888;28;20033;-74
2023/04/24 05:23:56;;;;;;;1999.90;999.90;;;8.30;98.90;;;;;;5067866;28;20048;-74
2023/04/24 05:26:22;;;;;;;1999.90;999.90;;;8.40;99.10;;;;;;5071745;28;20046;-75
2023/04/24 05:28:48;;;;;;;1999.90;999.90;;;8.40;98.80;;;;;;5072988;28;20074;-75
2023/04/24 05:31:14;;;;;;;1999.90;999.90;;;8.40;98.40;;;;;;5072188;28;20039;-75
2023/04/24 05:33:39;;;;;;;1999.90;999.90;;;8.50;98.40;;;;;;5067043;28;20029;-75
2023/04/24 05:36:06;;;;;;;1999.90;999.90;;;8.50;98.00;;;;;;5055637;28;20027;-77
2023/04/24 05:38:33;;;;;;;1999.90;999.90;;;8.50;97.60;;;;;;5052967;28;20522;-80
2023/04/24 05:40:59;;;;;;;1999.90;999.90;;;8.50;97.40;;;;;;5055145;28;20044;-76
2023/04/24 05:43:27;;;;;;;1999.90;999.90;;;8.60;96.90;;;;;;5051393;28;20491;-76
2023/04/24 05:45:53;;;;;;;1999.90;999.90;;;8.60;96.80;;;;;;5090358;28;20040;-77
2023/04/24 05:48:19;;;;;;;1999.90;999.90;;;8.70;96.90;;;;;;5072801;28;20551;-77
2023/04/24 05:50:45;;;;;;;1999.90;999.90;;;8.70;96.30;;;;;;5060726;28;20037;-76
2023/04/24 05:53:10;;;;;;;1999.90;999.90;;;8.70;96.20;;;;;;5053461;28;20610;-77
2023/04/24 05:55:36;;;;;;;1999.90;999.90;;;8.70;96.10;;;;;;5075066;28;20484;-76
2023/04/24 05:58:02;;;;;;;1999.90;999.90;;;8.80;95.90;;;;;;5068779;28;20025;-72
2023/04/24 06:00:28;;;;;;;1999.90;999.90;;;8.70;95.70;;;;;;5073442;28;20031;-71
2023/04/24 06:02:54;;;;;;;1999.90;999.90;;;8.80;95.80;;;;;;5073385;28;20437;-79
2023/04/24 06:05:20;;;;;;;1999.90;999.90;;;8.80;95.80;;;;;;5063646;28;20059;-80
2023/04/24 06:07:46;;;;;;;1999.90;999.90;;;8.70;95.90;;;;;;5067985;28;20120;-77
2023/04/24 06:10:11;;;;;;;1999.90;999.90;;;8.70;95.70;;;;;;5058313;28;20095;-79
2023/04/24 06:12:37;;;;;;;1999.90;999.90;;;8.60;95.80;;;;;;5072542;28;20050;-82
2023/04/24 06:15:03;;;;;;;1999.90;999.90;;;8.70;95.80;;;;;;5060608;28;20032;-81
2023/04/24 06:17:30;;;;;;;109.75;103.70;;;8.70;95.60;;;;;;5070680;28;20064;-79
2023/04/24 06:19:56;;;;;;;1082.15;573.53;;;8.70;95.70;;;;;;5075120;28;20553;-81
2023/04/24 06:22:21;;;;;;;1529.15;777.03;;;7.40;98.10;;;;;;5072830;28;20115;-82
2023/04/24 06:24:48;;;;;;;1999.90;999.90;;;6.60;99.40;;;;;;5075620;28;20127;-80
2023/04/24 06:27:14;;;;;;;154.00;143.77;;;6.10;99.90;;;;;;5073096;28;20145;-85
2023/04/24 06:29:40;;;;;;;1078.85;574.22;;;5.90;99.90;;;;;;5075879;28;20501;-81
2023/04/24 06:32:05;;;;;;;1999.90;999.90;;;6.00;99.90;;;;;;5039951;28;20036;-79
2023/04/24 06:34:33;;;;;;;1999.90;999.90;;;5.90;99.90;;;;;;5077511;28;20452;-80
2023/04/24 06:37:00;;;;;;;1999.90;999.90;;;5.90;99.90;;;;;;5073427;28;20048;-81
2023/04/24 06:39:25;;;;;;;1999.90;999.90;;;6.00;99.90;;;;;;5060700;28;20031;-84
2023/04/24 06:41:51;;;;;;;1999.90;999.90;;;6.10;99.90;;;;;;5058797;28;20449;-80
2023/04/24 06:44:17;;;;;;;1517.82;766.92;;;6.10;99.90;;;;;;5055934;28;20037;-79
2023/04/24 06:46:43;;;;;;;1999.90;999.90;;;6.20;99.90;;;;;;5058613;28;20413;-82
2023/04/24 06:49:08;;;;;;;1999.90;999.90;;;6.20;99.90;;;;;;5071082;28;20041;-78
2023/04/24 06:51:34;;;;;;;1999.90;999.90;;;6.20;99.90;;;;;;5044985;28;20514;-77
2023/04/24 06:54:00;;;;;;;1999.90;999.90;;;6.20;99.90;;;;;;5063942;28;20404;-75
2023/04/24 06:56:26;;;;;;;1999.90;999.90;;;6.40;99.90;;;;;;5054169;28;20032;-75
2023/04/24 06:58:53;;;;;;;1999.90;999.90;;;6.40;99.90;;;;;;5071236;28;20044;-78
2023/04/24 07:01:18;;;;;;;1999.90;999.90;;;6.60;99.90;;;;;;5057813;28;20102;-79
2023/04/24 07:03:44;;;;;;;1999.90;999.90;;;6.70;99.90;;;;;;5071998;28;20046;-82
2023/04/24 07:06:12;;;;;;;1999.90;999.90;;;7.00;99.90;;;;;;5060882;28;20105;-79
2023/04/24 07:08:38;;;;;;;1999.90;999.90;;;7.20;99.90;;;;;;5044372;28;20064;-80
2023/04/24 07:11:04;;;;;;;1999.90;999.90;;;7.10;99.90;;;;;;5073330;28;20070;-79
2023/04/24 07:13:29;;;;;;;1999.90;999.90;;;7.10;99.90;;;;;;5078368;28;20048;-80
2023/04/24 07:15:56;;;;;;;1999.90;999.90;;;7.10;99.90;;;;;;5066548;28;20050;-76
2023/04/24 07:18:22;;;;;;;1999.90;999.90;;;7.00;99.90;;;;;;5055345;28;20037;-79
2023/04/24 07:20:49;;;;;;;1999.90;999.90;;;7.10;99.90;;;;;;5071553;28;20036;-78
2023/04/24 07:23:15;;;;;;;1999.90;999.90;;;7.30;99.90;;;;;;5061900;28;20136;-79
2023/04/24 07:25:41;;;;;;;1999.90;999.90;;;7.40;99.90;;;;;;5050237;28;20591;-78
2023/04/24 07:28:07;;;;;;;1999.90;999.90;;;7.30;99.90;;;;;;5049456;28;20079;-78
2023/04/24 07:30:33;;;;;;;1999.90;999.90;;;7.30;99.90;;;;;;5056600;28;20032;-80
2023/04/24 07:32:59;;;;;;;1999.90;999.90;;;7.60;99.90;;;;;;5049570;28;20109;-77
2023/04/24 07:35:26;;;;;;;1999.90;999.90;;;7.70;99.90;;;;;;5051097;28;20509;-77
2023/04/24 07:37:53;;;;;;;1999.90;999.90;;;7.80;99.90;;;;;;5052188;28;20043;-77
2023/04/24 07:40:19;;;;;;;1999.90;999.90;;;8.00;99.90;;;;;;5048640;28;20105;-78
2023/04/24 07:42:44;;;;;;;1999.90;999.90;;;8.10;99.90;;;;;;5053108;28;20462;-78
2023/04/24 07:45:10;;;;;;;1999.90;999.90;;;8.60;99.90;;;;;;5049527;28;20060;-77
2023/04/24 07:47:37;;;;;;;1999.90;999.90;;;8.70;99.90;;;;;;5049341;28;20040;-77
2023/04/24 07:50:03;;;;;;;1999.90;999.90;;;8.50;99.90;;;;;;5049972;28;20380;-78
2023/04/24 07:52:30;;;;;;;1999.90;999.90;;;8.70;99.90;;;;;;5045371;28;20032;-78
2023/04/24 07:54:58;;;;;;;1999.90;999.90;;;8.80;99.90;;;;;;5045565;28;20028;-78
2023/04/24 07:57:25;;;;;;;1999.90;999.90;;;8.60;99.90;;;;;;5051176;28;20017;-78
2023/04/24 07:59:50;;;;;;;1999.90;999.90;;;8.50;99.90;;;;;;5052838;28;20082;-78
2023/04/24 08:02:16;;;;;;;1999.90;999.90;;;8.60;99.90;;;;;;5049282;28;20028;-75
2023/04/24 08:04:42;;;;;;;1999.90;999.90;;;8.60;99.90;;;;;;5048293;28;20483;-78
2023/04/24 08:07:08;;;;;;;1999.90;999.90;;;8.60;99.90;;;;;;5045695;28;21058;-74
2023/04/24 08:09:33;;;;;;;1999.90;999.90;;;8.50;99.90;;;;;;5055497;28;20083;-76
2023/04/24 08:11:59;;;;;;;1999.90;999.90;;;8.50;99.90;;;;;;5049793;28;20029;-80
2023/04/24 08:14:25;;;;;;;1999.90;999.90;;;8.30;99.90;;;;;;5046705;28;20044;-81
2023/04/24 08:16:54;;;;;;;1999.90;999.90;;;8.20;99.90;;;;;;5052115;28;20033;-79
2023/04/24 08:19:20;;;;;;;1999.90;999.90;;;7.90;99.90;;;;;;5047782;28;20031;-80
2023/04/24 08:21:46;;;;;;;1124.43;611.63;;;7.10;99.90;;;;;;5051286;28;20033;-78
2023/04/24 08:24:11;;;;;;;1999.90;999.90;;;6.80;99.90;;;;;;5068447;28;20093;-80
2023/04/24 08:26:37;;;;;;;1999.90;999.90;;;6.50;99.90;;;;;;5057019;28;20083;-78
2023/04/24 08:29:03;;;;;;;1999.90;999.90;;;6.40;99.90;;;;;;5070312;28;20036;-80
2023/04/24 08:31:28;;;;;;;1999.90;999.90;;;6.50;99.90;;;;;;5071011;28;20047;-82
2023/04/24 08:33:54;;;;;;;1538.38;784.85;;;6.30;99.90;;;;;;5059018;28;20036;-79
2023/04/24 08:36:20;;;;;;;1999.90;999.90;;;6.50;99.90;;;;;;5070624;28;20536;-82
2023/04/24 08:38:46;;;;;;;1999.90;999.90;;;6.70;99.90;;;;;;5057064;28;20052;-79
2023/04/24 08:41:15;;;;;;;1999.90;999.90;;;6.70;99.90;;;;;;5069202;28;20028;-83
2023/04/24 08:43:41;;;;;;;1999.90;999.90;;;6.80;99.90;;;;;;5058472;28;20052;-79
2023/04/24 08:46:08;;;;;;;1999.90;999.90;;;6.80;99.90;;;;;;5052743;28;20051;-81
2023/04/24 08:48:34;;;;;;;1999.90;999.90;;;7.00;99.90;;;;;;5055179;28;20037;-78
2023/04/24 08:51:01;;;;;;;1999.90;999.90;;;7.00;99.90;;;;;;5068885;28;20482;-77
2023/04/24 08:53:29;;;;;;;1999.90;999.90;;;7.40;99.90;;;;;;5071924;28;20656;-85
2023/04/24 08:55:56;;;;;;;1999.90;999.90;;;7.90;99.90;;;;;;5066398;28;20060;-80
2023/04/24 08:58:25;;;;;;;1999.90;999.90;;;8.20;99.90;;;;;;5074425;28;20025;-78
2023/04/24 09:00:50;;;;;;;1999.90;999.90;;;8.40;99.90;;;;;;5075949;28;20479;-80
2023/04/24 09:03:17;;;;;;;1999.90;999.90;;;9.00;99.90;;;;;;5064312;28;20036;-77
2023/04/24 09:05:47;;;;;;;1999.90;999.90;;;9.70;99.90;;;;;;5075710;28;20047;-78
2023/04/24 09:08:14;;;;;;;1999.90;999.90;;;9.90;99.90;;;;;;5062712;28;20060;-79
2023/04/24 09:10:40;;;;;;;1999.90;999.90;;;9.90;99.90;;;;;;5079536;28;20086;-78
2023/04/24 09:13:09;;;;;;;1999.90;999.90;;;10.20;99.90;;;;;;5061959;28;20036;-79
2023/04/24 09:15:35;;;;;;;1999.90;999.90;;;9.90;99.90;;;;;;5071597;28;20039;-77
2023/04/24 09:18:01;;;;;;;1999.90;999.90;;;10.30;99.90;;;;;;5076236;28;20025;-77
2023/04/24 09:20:27;;;;;;;1999.90;999.90;;;10.70;99.90;;;;;;5075655;28;20025;-78
2023/04/24 09:22:57;;;;;;;1999.90;999.90;;;10.70;99.90;;;;;;5061471;28;20044;-77
2023/04/24 09:25:30;;;;;;;1999.90;999.90;;;10.10;99.60;;;;;;5076058;28;20515;-79
2023/04/24 09:28:01;;;;;;;1999.90;999.90;;;10.40;99.90;;;;;;5077429;28;20044;-80
2023/04/24 09:30:27;;;;;;;1999.90;999.90;;;10.80;99.90;;;;;;5054788;28;20035;-72
2023/04/24 09:33:14;;;;;;;1999.90;999.90;;;11.50;99.90;;;;;;5073806;28;20029;-79
2023/04/24 09:35:51;;;;;;;1999.90;999.90;;;11.60;95.40;;;;;;5068255;28;20115;-81
2023/04/24 09:38:17;;;;;;;1999.90;999.90;;;11.80;96.40;;;;;;5073336;28;20025;-77
2023/04/24 09:40:42;;;;;;;1999.90;999.90;;;11.60;93.60;;;;;;5058686;28;20094;-79
2023/04/24 09:43:11;;;;;;;1999.90;999.90;;;12.00;94.20;;;;;;5072875;28;20063;-78
2023/04/24 09:45:40;;;;;;;1999.90;999.90;;;11.60;94.90;;;;;;5052601;28;20123;-80
2023/04/24 09:48:09;;;;;;;1999.90;999.90;;;11.50;95.30;;;;;;5058523;28;20020;-79
2023/04/24 09:50:35;;;;;;;1066.35;562.83;;;10.90;91.00;;;;;;5055188;28;20048;-76
2023/04/24 09:53:07;;;;;;;1999.90;999.90;;;10.30;91.50;;;;;;5072095;28;20028;-78
2023/04/24 09:55:32;;;;;;;1999.90;999.90;;;10.10;91.00;;;;;;5044578;28;20036;-80
2023/04/24 09:58:04;;;;;;;1999.90;999.90;;;10.60;96.70;;;;;;5078064;28;20039;-79
2023/04/24 10:00:32;;;;;;;1999.90;999.90;;;11.00;92.20;;;;;;5074529;28;20458;-79
2023/04/24 10:03:03;;;;;;;1999.90;999.90;;;10.80;90.60;;;;;;5060205;28;20071;-79
2023/04/24 10:05:30;;;;;;;1999.90;999.90;;;10.60;90.90;;;;;;5056693;28;20480;-78
2023/04/24 10:08:09;;;;;;;1999.90;999.90;;;10.40;91.70;;;;;;5075060;28;20035;-79
2023/04/24 10:10:41;;;;;;;1999.90;999.90;;;10.30;92.00;;;;;;5070103;28;20037;-82
2023/04/24 10:13:08;;;;;;;1999.90;999.90;;;10.80;90.40;;;;;;5076200;28;20028;-79
2023/04/24 10:15:35;;;;;;;1999.90;999.90;;;11.00;87.70;;;;;;5073254;28;20359;-79
2023/04/24 10:18:01;;;;;;;1999.90;999.90;;;11.40;90.20;;;;;;5072630;28;20020;-77
2023/04/24 10:20:30;;;;;;;1999.90;999.90;;;11.40;90.50;;;;;;5075934;28;20112;-78
2023/04/24 10:22:56;;;;;;;1999.90;999.90;;;11.00;83.30;;;;;;5062693;28;20049;-76
2023/04/24 10:25:30;;;;;;;1999.90;999.90;;;11.00;82.90;;;;;;5070108;28;20048;-78
2023/04/24 10:27:59;;;;;;;1999.90;999.90;;;11.70;81.10;;;;;;5070735;28;20032;-78
2023/04/24 10:30:27;;;;;;;1999.90;999.90;;;12.10;81.50;;;;;;5058271;28;20037;-75
2023/04/24 10:32:53;;;;;;;1999.90;999.90;;;12.00;74.30;;;;;;5059872;28;20044;-78
2023/04/24 10:35:22;;;;;;;1999.90;999.90;;;12.10;70.30;;;;;;5071439;28;20067;-78
2023/04/24 10:38:05;;;;;;;1999.90;999.90;;;12.20;71.60;;;;;;5057348;28;20037;-75
2023/04/24 10:40:35;;;;;;;1999.90;999.90;;;12.40;66.90;;;;;;5077255;28;20034;-78
2023/04/24 10:43:07;;;;;;;1999.90;999.90;;;12.30;66.80;;;;;;5078339;28;20039;-78
2023/04/24 10:45:33;;;;;;;1999.90;999.90;;;12.30;67.20;;;;;;5076092;28;20032;-78
2023/04/24 10:48:01;;;;;;;1999.90;999.90;;;12.00;67.50;;;;;;5075020;28;20040;-78
2023/04/24 10:50:30;;;;;;;1999.90;999.90;;;11.50;68.00;;;;;;5077344;28;20482;-78
2023/04/24 10:53:06;;;;;;;1999.90;999.90;;;11.40;68.70;;;;;;5055420;28;20032;-78
2023/04/24 10:55:56;;;;;;;1999.90;999.90;;;11.60;70.50;;;;;;5061223;28;20111;-78
2023/04/24 10:58:23;;;;;;;1999.90;999.90;;;12.00;70.60;;;;;;5073951;28;20716;-79
2023/04/24 11:00:59;;;;;;;1999.90;999.90;;;11.90;68.60;;;;;;5059255;28;20192;-78
2023/04/24 11:03:29;;;;;;;1999.90;999.90;;;12.80;65.40;;;;;;5071888;28;20130;-78
2023/04/24 11:06:02;;;;;;;1999.90;999.90;;;14.00;64.60;;;;;;5071406;28;20538;-77
2023/04/24 11:08:45;;;;;;;1999.90;999.90;;;14.50;61.50;;;;;;5061436;28;20561;-75
2023/04/24 11:11:18;;;;;;;1999.90;999.90;;;13.70;59.80;;;;;;5069998;28;20033;-74
2023/04/24 11:13:56;;;;;;;1999.90;999.90;;;12.90;61.50;;;;;;5073723;28;20021;-74
2023/04/24 11:16:44;;;;;;;1999.90;999.90;;;12.40;62.20;;;;;;5073024;28;20035;-74
2023/04/24 11:19:16;;;;;;;1999.90;999.90;;;13.60;65.30;;;;;;5070859;28;20069;-73
2023/04/24 11:21:42;;;;;;;1999.90;999.90;;;13.60;59.10;;;;;;5056131;28;20034;-74
2023/04/24 11:24:40;;;;;;;1999.90;999.90;;;13.30;58.00;;;;;;5061398;28;20473;-74
2023/04/24 11:27:20;;;;;;;1999.90;999.90;;;14.30;56.70;;;;;;5047497;28;20067;-74
2023/04/24 11:29:54;;;;;;;1999.90;999.90;;;15.90;54.70;;;;;;5046782;28;20094;-74
2023/04/24 11:32:32;;;;;;;1999.90;999.90;;;15.50;49.70;;;;;;5050398;28;20491;-76
2023/04/24 11:35:05;;;;;;;1999.90;999.90;;;14.30;52.50;;;;;;5068429;28;20021;-75
2023/04/24 11:37:42;;;;;;;1999.90;999.90;;;14.00;53.90;;;;;;5051837;28;20027;-75
2023/04/24 11:40:15;;;;;;;1999.90;999.90;;;14.90;50.90;;;;;;5050817;28;20379;-76
2023/04/24 11:42:43;;;;;;;1999.90;999.90;;;14.50;49.70;;;;;;5055034;28;20040;-75
2023/04/24 11:45:11;;;;;;;1999.90;999.90;;;14.30;53.50;;;;;;5052899;28;20024;-75
2023/04/24 11:47:39;;;;;;;1999.90;999.90;;;14.70;53.00;;;;;;5065905;28;20028;-75
2023/04/24 11:50:07;;;;;;;1999.90;999.90;;;14.40;51.50;;;;;;5054861;28;20528;-75
2023/04/24 11:52:37;;;;;;;1999.90;999.90;;;13.90;52.60;;;;;;5052498;28;20051;-75
2023/04/24 11:55:03;;;;;;;1999.90;999.90;;;13.80;55.50;;;;;;5036820;28;20054;-76
2023/04/24 11:57:34;;;;;;;1999.90;999.90;;;13.60;54.50;;;;;;5037278;28;20404;-75
2023/04/24 12:00:07;;;;;;;1999.90;999.90;;;13.30;54.60;;;;;;5044025;28;20029;-76
2023/04/24 12:02:34;;;;;;;1999.90;999.90;;;13.70;55.60;;;;;;5068160;28;20036;-76
2023/04/24 12:04:59;;;;;;;1999.90;999.90;;;14.30;51.10;;;;;;5048218;28;20182;-76
2023/04/24 12:07:25;;;;;;;1999.90;999.90;;;15.00;48.40;;;;;;5067082;28;20561;-74